sensor_id;sensor_type;location;lat;lon;timestamp;P1;durP1;ratioP1;P2;durP2;ratioP2
31002;SDS011;23051;-6.372;106.786;2022-08-27T00:00:53;5.85;;;3.88;;
31002;SDS011;23051;-6.372;106.786;2022-08-27T00:02:57;10.98;;;5.85;;
31002;SDS011;23051;-6.372;106.786;2022-08-27T00:04:59;32.17;;;7.55;;
31002;SDS011;23051;-6.372;106.786;2022-08-27T00:07:06;8.60;;;4.05;;
31002;SDS011;23051;-6.372;106.786;2022-08-27T00:09:10;7.07;;;3.90;;
31002;SDS011;23051;-6.372;106.786;2022-08-27T00:11:12;7.65;;;5.35;;
31002;SDS011;23051;-6.372;106.786;2022-08-27T00:13:16;5.60;;;4.93;;
31002;SDS011;23051;-6.372;106.786;2022-08-27T00:15:18;8.35;;;6.20;;
31002;SDS011;23051;-6.372;106.786;2022-08-27T00:17:22;8.10;;;5.13;;
31002;SDS011;23051;-6.372;106.786;2022-08-27T00:19:23;7.72;;;5.60;;
31002;SDS011;23051;-6.372;106.786;2022-08-27T00:21:25;6.10;;;5.07;;
31002;SDS011;23051;-6.372;106.786;2022-08-27T00:23:29;12.10;;;5.35;;
31002;SDS011;23051;-6.372;106.786;2022-08-27T00:25:33;7.38;;;5.95;;
31002;SDS011;23051;-6.372;106.786;2022-08-27T00:27:34;5.55;;;5.05;;
31002;SDS011;23051;-6.372;106.786;2022-08-27T00:29:39;10.75;;;5.93;;
31002;SDS011;23051;-6.372;106.786;2022-08-27T00:31:43;7.20;;;6.10;;
31002;SDS011;23051;-6.372;106.786;2022-08-27T00:33:47;14.48;;;7.05;;
31002;SDS011;23051;-6.372;106.786;2022-08-27T00:35:54;10.60;;;6.30;;
31002;SDS011;23051;-6.372;106.786;2022-08-27T00:38:00;8.38;;;7.03;;
31002;SDS011;23051;-6.372;106.786;2022-08-27T00:40:03;19.65;;;7.40;;
31002;SDS011;23051;-6.372;106.786;2022-08-27T00:42:09;8.73;;;7.57;;
31002;SDS011;23051;-6.372;106.786;2022-08-27T00:44:14;10.45;;;6.38;;
31002;SDS011;23051;-6.372;106.786;2022-08-27T00:46:41;11.20;;;7.05;;
31002;SDS011;23051;-6.372;106.786;2022-08-27T00:48:38;15.90;;;7.03;;
31002;SDS011;23051;-6.372;106.786;2022-08-27T00:50:41;15.52;;;7.50;;
31002;SDS011;23051;-6.372;106.786;2022-08-27T00:52:48;14.65;;;6.57;;
31002;SDS011;23051;-6.372;106.786;2022-08-27T00:54:52;16.30;;;8.95;;
31002;SDS011;23051;-6.372;106.786;2022-08-27T00:56:54;10.60;;;7.28;;
31002;SDS011;23051;-6.372;106.786;2022-08-27T00:59:01;13.07;;;7.43;;
31002;SDS011;23051;-6.372;106.786;2022-08-27T01:01:04;14.77;;;7.20;;
31002;SDS011;23051;-6.372;106.786;2022-08-27T01:03:08;11.82;;;10.68;;
31002;SDS011;23051;-6.372;106.786;2022-08-27T01:05:12;11.07;;;8.90;;
31002;SDS011;23051;-6.372;106.786;2022-08-27T01:07:15;9.98;;;6.68;;
31002;SDS011;23051;-6.372;106.786;2022-08-27T01:09:18;11.63;;;8.27;;
31002;SDS011;23051;-6.372;106.786;2022-08-27T01:11:23;8.80;;;6.78;;
31002;SDS011;23051;-6.372;106.786;2022-08-27T01:13:26;12.32;;;10.05;;
31002;SDS011;23051;-6.372;106.786;2022-08-27T01:15:31;12.55;;;7.43;;
31002;SDS011;23051;-6.372;106.786;2022-08-27T01:17:38;14.10;;;7.50;;
31002;SDS011;23051;-6.372;106.786;2022-08-27T01:19:46;11.07;;;7.05;;
31002;SDS011;23051;-6.372;106.786;2022-08-27T01:21:55;27.48;;;10.32;;
31002;SDS011;23051;-6.372;106.786;2022-08-27T01:24:02;12.23;;;9.20;;
31002;SDS011;23051;-6.372;106.786;2022-08-27T01:26:07;13.23;;;9.85;;
31002;SDS011;23051;-6.372;106.786;2022-08-27T01:30:16;11.97;;;9.47;;
31002;SDS011;23051;-6.372;106.786;2022-08-27T01:32:20;16.90;;;9.80;;
31002;SDS011;23051;-6.372;106.786;2022-08-27T01:34:25;15.23;;;8.02;;
31002;SDS011;23051;-6.372;106.786;2022-08-27T01:36:29;17.42;;;8.35;;
31002;SDS011;23051;-6.372;106.786;2022-08-27T01:38:33;19.30;;;9.13;;
31002;SDS011;23051;-6.372;106.786;2022-08-27T01:42:39;20.67;;;7.88;;
31002;SDS011;23051;-6.372;106.786;2022-08-27T01:44:43;27.15;;;10.95;;
31002;SDS011;23051;-6.372;106.786;2022-08-27T01:46:48;24.13;;;9.88;;
31002;SDS011;23051;-6.372;106.786;2022-08-27T01:48:49;13.00;;;8.88;;
31002;SDS011;23051;-6.372;106.786;2022-08-27T01:50:51;23.13;;;11.70;;
31002;SDS011;23051;-6.372;106.786;2022-08-27T01:52:59;9.40;;;7.95;;
31002;SDS011;23051;-6.372;106.786;2022-08-27T01:55:02;15.93;;;9.48;;
31002;SDS011;23051;-6.372;106.786;2022-08-27T01:57:09;10.68;;;9.32;;
31002;SDS011;23051;-6.372;106.786;2022-08-27T01:59:13;21.48;;;8.88;;
31002;SDS011;23051;-6.372;106.786;2022-08-27T02:01:15;21.65;;;11.25;;
31002;SDS011;23051;-6.372;106.786;2022-08-27T02:03:16;12.68;;;10.05;;
31002;SDS011;23051;-6.372;106.786;2022-08-27T02:05:18;15.15;;;9.00;;
31002;SDS011;23051;-6.372;106.786;2022-08-27T02:07:20;18.93;;;12.83;;
31002;SDS011;23051;-6.372;106.786;2022-08-27T02:09:22;18.75;;;12.05;;
31002;SDS011;23051;-6.372;106.786;2022-08-27T02:11:24;17.85;;;8.80;;
31002;SDS011;23051;-6.372;106.786;2022-08-27T02:13:28;18.35;;;9.43;;
31002;SDS011;23051;-6.372;106.786;2022-08-27T02:15:30;18.90;;;11.13;;
31002;SDS011;23051;-6.372;106.786;2022-08-27T02:17:34;19.52;;;13.00;;
31002;SDS011;23051;-6.372;106.786;2022-08-27T02:19:35;17.05;;;11.85;;
31002;SDS011;23051;-6.372;106.786;2022-08-27T02:21:40;23.13;;;10.43;;
31002;SDS011;23051;-6.372;106.786;2022-08-27T02:23:44;15.13;;;10.32;;
31002;SDS011;23051;-6.372;106.786;2022-08-27T02:25:46;17.85;;;10.60;;
31002;SDS011;23051;-6.372;106.786;2022-08-27T02:27:48;17.35;;;9.35;;
31002;SDS011;23051;-6.372;106.786;2022-08-27T02:29:52;14.77;;;8.82;;
31002;SDS011;23051;-6.372;106.786;2022-08-27T02:31:56;39.42;;;10.32;;
31002;SDS011;23051;-6.372;106.786;2022-08-27T02:34:00;15.93;;;9.73;;
31002;SDS011;23051;-6.372;106.786;2022-08-27T02:36:05;13.18;;;7.53;;
31002;SDS011;23051;-6.372;106.786;2022-08-27T02:38:09;14.75;;;8.63;;
31002;SDS011;23051;-6.372;106.786;2022-08-27T02:40:12;7.65;;;6.85;;
31002;SDS011;23051;-6.372;106.786;2022-08-27T02:42:16;13.10;;;7.72;;
31002;SDS011;23051;-6.372;106.786;2022-08-27T02:44:20;21.15;;;7.05;;
31002;SDS011;23051;-6.372;106.786;2022-08-27T02:46:24;16.60;;;8.68;;
31002;SDS011;23051;-6.372;106.786;2022-08-27T02:48:26;14.25;;;7.88;;
31002;SDS011;23051;-6.372;106.786;2022-08-27T02:50:30;11.80;;;8.02;;
31002;SDS011;23051;-6.372;106.786;2022-08-27T02:52:33;12.07;;;8.77;;
31002;SDS011;23051;-6.372;106.786;2022-08-27T02:54:38;11.80;;;6.93;;
31002;SDS011;23051;-6.372;106.786;2022-08-27T02:56:39;17.83;;;7.32;;
31002;SDS011;23051;-6.372;106.786;2022-08-27T02:58:43;12.57;;;7.32;;
31002;SDS011;23051;-6.372;106.786;2022-08-27T03:00:47;8.45;;;7.15;;
31002;SDS011;23051;-6.372;106.786;2022-08-27T03:02:49;13.00;;;6.55;;
31002;SDS011;23051;-6.372;106.786;2022-08-27T03:04:51;19.90;;;7.57;;
31002;SDS011;23051;-6.372;106.786;2022-08-27T03:06:55;12.52;;;9.13;;
31002;SDS011;23051;-6.372;106.786;2022-08-27T03:08:57;7.13;;;6.45;;
31002;SDS011;23051;-6.372;106.786;2022-08-27T03:11:02;20.08;;;9.07;;
31002;SDS011;23051;-6.372;106.786;2022-08-27T03:13:03;9.15;;;6.20;;
31002;SDS011;23051;-6.372;106.786;2022-08-27T03:15:06;11.63;;;6.88;;
31002;SDS011;23051;-6.372;106.786;2022-08-27T03:17:11;14.02;;;6.93;;
31002;SDS011;23051;-6.372;106.786;2022-08-27T03:19:15;8.48;;;6.45;;
31002;SDS011;23051;-6.372;106.786;2022-08-27T03:21:22;15.57;;;7.55;;
31002;SDS011;23051;-6.372;106.786;2022-08-27T03:25:27;12.10;;;9.55;;
31002;SDS011;23051;-6.372;106.786;2022-08-27T03:27:31;14.05;;;7.00;;
31002;SDS011;23051;-6.372;106.786;2022-08-27T03:29:34;16.55;;;7.30;;
31002;SDS011;23051;-6.372;106.786;2022-08-27T03:31:38;13.77;;;6.78;;
31002;SDS011;23051;-6.372;106.786;2022-08-27T03:33:42;12.20;;;7.57;;
31002;SDS011;23051;-6.372;106.786;2022-08-27T03:35:46;9.25;;;7.22;;
31002;SDS011;23051;-6.372;106.786;2022-08-27T03:37:50;15.02;;;6.70;;
31002;SDS011;23051;-6.372;106.786;2022-08-27T03:39:54;7.60;;;6.38;;
31002;SDS011;23051;-6.372;106.786;2022-08-27T03:41:58;14.80;;;6.90;;
31002;SDS011;23051;-6.372;106.786;2022-08-27T03:43:59;10.27;;;6.30;;
31002;SDS011;23051;-6.372;106.786;2022-08-27T03:46:05;8.02;;;6.75;;
31002;SDS011;23051;-6.372;106.786;2022-08-27T03:48:09;9.00;;;6.72;;
31002;SDS011;23051;-6.372;106.786;2022-08-27T03:50:10;23.98;;;10.13;;
31002;SDS011;23051;-6.372;106.786;2022-08-27T03:54:16;26.55;;;8.32;;
31002;SDS011;23051;-6.372;106.786;2022-08-27T03:56:20;8.93;;;6.13;;
31002;SDS011;23051;-6.372;106.786;2022-08-27T03:58:24;9.90;;;7.85;;
31002;SDS011;23051;-6.372;106.786;2022-08-27T04:00:26;11.10;;;7.30;;
31002;SDS011;23051;-6.372;106.786;2022-08-27T04:02:28;15.65;;;7.60;;
31002;SDS011;23051;-6.372;106.786;2022-08-27T04:04:30;11.45;;;9.80;;
31002;SDS011;23051;-6.372;106.786;2022-08-27T04:06:33;10.45;;;5.30;;
31002;SDS011;23051;-6.372;106.786;2022-08-27T04:08:34;8.50;;;6.17;;
31002;SDS011;23051;-6.372;106.786;2022-08-27T04:10:38;8.07;;;7.07;;
31002;SDS011;23051;-6.372;106.786;2022-08-27T04:12:43;10.23;;;7.88;;
31002;SDS011;23051;-6.372;106.786;2022-08-27T04:14:44;14.25;;;6.47;;
31002;SDS011;23051;-6.372;106.786;2022-08-27T04:16:46;15.93;;;7.80;;
31002;SDS011;23051;-6.372;106.786;2022-08-27T04:18:50;12.00;;;5.68;;
31002;SDS011;23051;-6.372;106.786;2022-08-27T04:20:52;7.68;;;6.63;;
31002;SDS011;23051;-6.372;106.786;2022-08-27T04:22:56;15.27;;;8.02;;
31002;SDS011;23051;-6.372;106.786;2022-08-27T04:25:00;8.55;;;7.43;;
31002;SDS011;23051;-6.372;106.786;2022-08-27T04:27:04;6.68;;;6.13;;
31002;SDS011;23051;-6.372;106.786;2022-08-27T04:29:09;8.27;;;5.78;;
31002;SDS011;23051;-6.372;106.786;2022-08-27T04:31:13;5.80;;;5.25;;
31002;SDS011;23051;-6.372;106.786;2022-08-27T04:33:14;6.43;;;5.85;;
31002;SDS011;23051;-6.372;106.786;2022-08-27T04:35:18;11.82;;;5.95;;
31002;SDS011;23051;-6.372;106.786;2022-08-27T04:37:20;21.77;;;7.90;;
31002;SDS011;23051;-6.372;106.786;2022-08-27T04:39:22;9.60;;;7.95;;
31002;SDS011;23051;-6.372;106.786;2022-08-27T04:41:26;9.90;;;7.35;;
31002;SDS011;23051;-6.372;106.786;2022-08-27T04:43:35;12.23;;;8.07;;
31002;SDS011;23051;-6.372;106.786;2022-08-27T04:45:43;13.02;;;7.00;;
31002;SDS011;23051;-6.372;106.786;2022-08-27T04:47:47;12.65;;;7.70;;
31002;SDS011;23051;-6.372;106.786;2022-08-27T04:49:51;11.93;;;6.82;;
31002;SDS011;23051;-6.372;106.786;2022-08-27T04:51:55;11.77;;;6.72;;
31002;SDS011;23051;-6.372;106.786;2022-08-27T04:53:59;8.60;;;6.68;;
31002;SDS011;23051;-6.372;106.786;2022-08-27T04:56:04;8.43;;;6.72;;
31002;SDS011;23051;-6.372;106.786;2022-08-27T04:58:05;11.10;;;6.82;;
31002;SDS011;23051;-6.372;106.786;2022-08-27T05:00:12;9.50;;;5.80;;
31002;SDS011;23051;-6.372;106.786;2022-08-27T05:02:16;8.23;;;6.82;;
31002;SDS011;23051;-6.372;106.786;2022-08-27T05:04:20;12.55;;;6.20;;
31002;SDS011;23051;-6.372;106.786;2022-08-27T05:06:27;8.23;;;5.72;;
31002;SDS011;23051;-6.372;106.786;2022-08-27T05:08:31;9.98;;;6.05;;
31002;SDS011;23051;-6.372;106.786;2022-08-27T05:12:40;7.32;;;6.20;;
31002;SDS011;23051;-6.372;106.786;2022-08-27T05:14:44;18.10;;;6.53;;
31002;SDS011;23051;-6.372;106.786;2022-08-27T05:16:48;7.72;;;5.88;;
31002;SDS011;23051;-6.372;106.786;2022-08-27T05:18:50;12.50;;;5.93;;
31002;SDS011;23051;-6.372;106.786;2022-08-27T05:20:54;11.97;;;6.23;;
31002;SDS011;23051;-6.372;106.786;2022-08-27T05:22:58;7.07;;;5.75;;
31002;SDS011;23051;-6.372;106.786;2022-08-27T05:25:00;14.65;;;7.60;;
31002;SDS011;23051;-6.372;106.786;2022-08-27T05:27:04;12.15;;;7.05;;
31002;SDS011;23051;-6.372;106.786;2022-08-27T05:29:05;14.23;;;7.88;;
31002;SDS011;23051;-6.372;106.786;2022-08-27T05:31:12;10.88;;;7.13;;
31002;SDS011;23051;-6.372;106.786;2022-08-27T05:33:16;12.93;;;6.13;;
31002;SDS011;23051;-6.372;106.786;2022-08-27T05:35:21;8.15;;;7.00;;
31002;SDS011;23051;-6.372;106.786;2022-08-27T05:37:22;12.93;;;8.48;;
31002;SDS011;23051;-6.372;106.786;2022-08-27T05:39:26;8.63;;;7.82;;
31002;SDS011;23051;-6.372;106.786;2022-08-27T05:41:31;14.88;;;6.72;;
31002;SDS011;23051;-6.372;106.786;2022-08-27T05:43:36;39.30;;;8.95;;
31002;SDS011;23051;-6.372;106.786;2022-08-27T05:45:41;9.27;;;6.82;;
31002;SDS011;23051;-6.372;106.786;2022-08-27T05:47:45;13.98;;;7.97;;
31002;SDS011;23051;-6.372;106.786;2022-08-27T05:49:49;8.13;;;6.82;;
31002;SDS011;23051;-6.372;106.786;2022-08-27T05:51:51;15.18;;;8.57;;
31002;SDS011;23051;-6.372;106.786;2022-08-27T05:53:56;11.68;;;8.32;;
31002;SDS011;23051;-6.372;106.786;2022-08-27T05:56:01;10.80;;;6.57;;
31002;SDS011;23051;-6.372;106.786;2022-08-27T05:58:05;19.48;;;8.60;;
31002;SDS011;23051;-6.372;106.786;2022-08-27T06:00:26;14.93;;;7.75;;
31002;SDS011;23051;-6.372;106.786;2022-08-27T06:02:30;13.55;;;9.88;;
31002;SDS011;23051;-6.372;106.786;2022-08-27T06:04:38;23.70;;;9.52;;
31002;SDS011;23051;-6.372;106.786;2022-08-27T06:06:40;22.40;;;9.43;;
31002;SDS011;23051;-6.372;106.786;2022-08-27T06:08:42;9.13;;;7.18;;
31002;SDS011;23051;-6.372;106.786;2022-08-27T06:10:46;16.60;;;7.63;;
31002;SDS011;23051;-6.372;106.786;2022-08-27T06:12:54;13.43;;;9.45;;
31002;SDS011;23051;-6.372;106.786;2022-08-27T06:14:56;10.27;;;6.80;;
31002;SDS011;23051;-6.372;106.786;2022-08-27T06:16:59;10.45;;;7.63;;
31002;SDS011;23051;-6.372;106.786;2022-08-27T06:19:03;15.27;;;9.52;;
31002;SDS011;23051;-6.372;106.786;2022-08-27T06:21:10;14.57;;;6.78;;
31002;SDS011;23051;-6.372;106.786;2022-08-27T06:23:12;35.00;;;11.55;;
31002;SDS011;23051;-6.372;106.786;2022-08-27T06:25:13;15.88;;;10.10;;
31002;SDS011;23051;-6.372;106.786;2022-08-27T06:27:17;13.38;;;7.78;;
31002;SDS011;23051;-6.372;106.786;2022-08-27T06:29:19;10.48;;;8.15;;
31002;SDS011;23051;-6.372;106.786;2022-08-27T06:33:26;23.83;;;9.70;;
31002;SDS011;23051;-6.372;106.786;2022-08-27T06:35:30;9.52;;;8.50;;
31002;SDS011;23051;-6.372;106.786;2022-08-27T06:37:34;27.48;;;9.55;;
31002;SDS011;23051;-6.372;106.786;2022-08-27T06:39:38;20.60;;;10.48;;
31002;SDS011;23051;-6.372;106.786;2022-08-27T06:41:42;15.77;;;10.20;;
31002;SDS011;23051;-6.372;106.786;2022-08-27T06:43:46;9.95;;;9.05;;
31002;SDS011;23051;-6.372;106.786;2022-08-27T06:45:53;20.42;;;12.00;;
31002;SDS011;23051;-6.372;106.786;2022-08-27T06:47:55;17.67;;;8.77;;
31002;SDS011;23051;-6.372;106.786;2022-08-27T06:49:59;15.23;;;11.20;;
31002;SDS011;23051;-6.372;106.786;2022-08-27T06:52:03;11.00;;;9.45;;
31002;SDS011;23051;-6.372;106.786;2022-08-27T06:54:09;10.30;;;9.23;;
31002;SDS011;23051;-6.372;106.786;2022-08-27T06:56:13;13.90;;;9.10;;
31002;SDS011;23051;-6.372;106.786;2022-08-27T06:58:16;26.55;;;11.50;;
31002;SDS011;23051;-6.372;106.786;2022-08-27T07:00:17;13.45;;;9.38;;
31002;SDS011;23051;-6.372;106.786;2022-08-27T07:02:19;10.73;;;9.18;;
31002;SDS011;23051;-6.372;106.786;2022-08-27T07:04:23;15.40;;;9.40;;
31002;SDS011;23051;-6.372;106.786;2022-08-27T07:06:29;10.77;;;9.32;;
31002;SDS011;23051;-6.372;106.786;2022-08-27T07:08:33;19.33;;;9.00;;
31002;SDS011;23051;-6.372;106.786;2022-08-27T07:10:37;14.13;;;9.35;;
31002;SDS011;23051;-6.372;106.786;2022-08-27T07:12:39;10.25;;;8.85;;
31002;SDS011;23051;-6.372;106.786;2022-08-27T07:14:45;18.40;;;9.93;;
31002;SDS011;23051;-6.372;106.786;2022-08-27T07:18:50;18.50;;;9.15;;
31002;SDS011;23051;-6.372;106.786;2022-08-27T07:20:54;18.42;;;8.00;;
31002;SDS011;23051;-6.372;106.786;2022-08-27T07:22:56;12.40;;;7.97;;
31002;SDS011;23051;-6.372;106.786;2022-08-27T07:25:02;14.45;;;9.85;;
31002;SDS011;23051;-6.372;106.786;2022-08-27T07:27:06;19.38;;;11.88;;
31002;SDS011;23051;-6.372;106.786;2022-08-27T07:29:11;15.95;;;9.32;;
31002;SDS011;23051;-6.372;106.786;2022-08-27T07:31:18;14.68;;;9.00;;
31002;SDS011;23051;-6.372;106.786;2022-08-27T07:33:22;13.60;;;9.10;;
31002;SDS011;23051;-6.372;106.786;2022-08-27T07:35:24;12.55;;;5.85;;
31002;SDS011;23051;-6.372;106.786;2022-08-27T07:37:26;12.68;;;9.10;;
31002;SDS011;23051;-6.372;106.786;2022-08-27T07:39:30;15.88;;;10.15;;
31002;SDS011;23051;-6.372;106.786;2022-08-27T07:41:34;12.55;;;9.25;;
31002;SDS011;23051;-6.372;106.786;2022-08-27T07:43:55;12.43;;;8.00;;
31002;SDS011;23051;-6.372;106.786;2022-08-27T07:45:59;12.98;;;7.82;;
31002;SDS011;23051;-6.372;106.786;2022-08-27T07:48:07;9.48;;;6.70;;
31002;SDS011;23051;-6.372;106.786;2022-08-27T07:50:11;13.70;;;7.95;;
31002;SDS011;23051;-6.372;106.786;2022-08-27T07:52:15;8.93;;;8.13;;
31002;SDS011;23051;-6.372;106.786;2022-08-27T07:54:17;21.58;;;6.70;;
31002;SDS011;23051;-6.372;106.786;2022-08-27T07:56:21;18.48;;;9.18;;
31002;SDS011;23051;-6.372;106.786;2022-08-27T07:58:25;10.13;;;7.90;;
31002;SDS011;23051;-6.372;106.786;2022-08-27T08:00:26;17.13;;;8.85;;
31002;SDS011;23051;-6.372;106.786;2022-08-27T08:02:30;8.43;;;7.00;;
31002;SDS011;23051;-6.372;106.786;2022-08-27T08:04:36;15.25;;;9.05;;
31002;SDS011;23051;-6.372;106.786;2022-08-27T08:06:37;11.38;;;9.00;;
31002;SDS011;23051;-6.372;106.786;2022-08-27T08:08:48;16.23;;;9.10;;
31002;SDS011;23051;-6.372;106.786;2022-08-27T08:10:55;8.65;;;7.45;;
31002;SDS011;23051;-6.372;106.786;2022-08-27T08:12:59;15.70;;;9.85;;
31002;SDS011;23051;-6.372;106.786;2022-08-27T08:15:03;6.97;;;6.30;;
31002;SDS011;23051;-6.372;106.786;2022-08-27T08:17:05;9.88;;;7.60;;
31002;SDS011;23051;-6.372;106.786;2022-08-27T08:19:12;15.60;;;9.55;;
31002;SDS011;23051;-6.372;106.786;2022-08-27T08:21:16;10.50;;;8.20;;
31002;SDS011;23051;-6.372;106.786;2022-08-27T08:23:17;19.83;;;9.77;;
31002;SDS011;23051;-6.372;106.786;2022-08-27T08:25:20;14.43;;;8.53;;
31002;SDS011;23051;-6.372;106.786;2022-08-27T08:27:24;11.32;;;7.18;;
31002;SDS011;23051;-6.372;106.786;2022-08-27T08:29:26;13.65;;;8.27;;
31002;SDS011;23051;-6.372;106.786;2022-08-27T08:31:30;9.80;;;6.53;;
31002;SDS011;23051;-6.372;106.786;2022-08-27T08:33:34;9.20;;;6.43;;
31002;SDS011;23051;-6.372;106.786;2022-08-27T08:35:39;8.43;;;7.57;;
31002;SDS011;23051;-6.372;106.786;2022-08-27T08:37:45;18.50;;;8.93;;
31002;SDS011;23051;-6.372;106.786;2022-08-27T08:39:49;10.40;;;6.03;;
31002;SDS011;23051;-6.372;106.786;2022-08-27T08:41:56;13.68;;;8.02;;
31002;SDS011;23051;-6.372;106.786;2022-08-27T08:43:58;15.40;;;8.32;;
31002;SDS011;23051;-6.372;106.786;2022-08-27T08:46:09;12.20;;;8.55;;
31002;SDS011;23051;-6.372;106.786;2022-08-27T08:48:19;15.82;;;7.63;;
31002;SDS011;23051;-6.372;106.786;2022-08-27T08:50:25;13.45;;;8.82;;
31002;SDS011;23051;-6.372;106.786;2022-08-27T08:54:33;11.73;;;6.13;;
31002;SDS011;23051;-6.372;106.786;2022-08-27T08:56:39;14.60;;;7.70;;
31002;SDS011;23051;-6.372;106.786;2022-08-27T08:58:45;15.18;;;9.05;;
31002;SDS011;23051;-6.372;106.786;2022-08-27T09:00:51;12.45;;;8.07;;
31002;SDS011;23051;-6.372;106.786;2022-08-27T09:02:55;16.08;;;7.85;;
31002;SDS011;23051;-6.372;106.786;2022-08-27T09:05:01;13.30;;;7.75;;
31002;SDS011;23051;-6.372;106.786;2022-08-27T09:07:09;23.40;;;8.95;;
31002;SDS011;23051;-6.372;106.786;2022-08-27T09:09:18;12.27;;;9.40;;
31002;SDS011;23051;-6.372;106.786;2022-08-27T09:11:32;15.05;;;5.85;;
31002;SDS011;23051;-6.372;106.786;2022-08-27T09:13:39;13.00;;;8.13;;
31002;SDS011;23051;-6.372;106.786;2022-08-27T09:15:44;12.23;;;8.90;;
31002;SDS011;23051;-6.372;106.786;2022-08-27T09:17:49;12.82;;;7.10;;
31002;SDS011;23051;-6.372;106.786;2022-08-27T09:19:53;14.15;;;10.02;;
31002;SDS011;23051;-6.372;106.786;2022-08-27T09:22:02;10.85;;;7.22;;
31002;SDS011;23051;-6.372;106.786;2022-08-27T09:28:20;16.27;;;8.43;;
31002;SDS011;23051;-6.372;106.786;2022-08-27T09:30:31;11.98;;;8.38;;
31002;SDS011;23051;-6.372;106.786;2022-08-27T09:32:36;11.80;;;6.65;;
31002;SDS011;23051;-6.372;106.786;2022-08-27T09:34:43;12.30;;;8.35;;
31002;SDS011;23051;-6.372;106.786;2022-08-27T09:36:48;8.38;;;7.50;;
31002;SDS011;23051;-6.372;106.786;2022-08-27T09:38:59;6.80;;;6.28;;
31002;SDS011;23051;-6.372;106.786;2022-08-27T09:41:07;11.55;;;7.40;;
31002;SDS011;23051;-6.372;106.786;2022-08-27T09:49:21;9.90;;;7.38;;
31002;SDS011;23051;-6.372;106.786;2022-08-27T09:51:28;6.07;;;5.53;;
31002;SDS011;23051;-6.372;106.786;2022-08-27T09:53:41;12.85;;;6.45;;
31002;SDS011;23051;-6.372;106.786;2022-08-27T09:55:46;14.15;;;9.32;;
31002;SDS011;23051;-6.372;106.786;2022-08-27T09:57:50;10.38;;;8.20;;
31002;SDS011;23051;-6.372;106.786;2022-08-27T09:59:56;9.40;;;8.13;;
31002;SDS011;23051;-6.372;106.786;2022-08-27T10:04:04;11.80;;;7.20;;
31002;SDS011;23051;-6.372;106.786;2022-08-27T10:06:11;12.15;;;6.07;;
31002;SDS011;23051;-6.372;106.786;2022-08-27T10:10:23;11.73;;;6.57;;
31002;SDS011;23051;-6.372;106.786;2022-08-27T10:12:28;14.55;;;7.55;;
31002;SDS011;23051;-6.372;106.786;2022-08-27T10:14:36;9.93;;;8.82;;
31002;SDS011;23051;-6.372;106.786;2022-08-27T10:18:47;11.98;;;6.88;;
31002;SDS011;23051;-6.372;106.786;2022-08-27T10:20:58;10.07;;;7.10;;
31002;SDS011;23051;-6.372;106.786;2022-08-27T10:35:38;13.05;;;7.90;;
31002;SDS011;23051;-6.372;106.786;2022-08-27T10:41:55;14.35;;;6.70;;
31002;SDS011;23051;-6.372;106.786;2022-08-27T10:50:18;14.45;;;5.50;;
31002;SDS011;23051;-6.372;106.786;2022-08-27T10:54:32;6.15;;;5.45;;
31002;SDS011;23051;-6.372;106.786;2022-08-27T10:56:43;10.00;;;5.95;;
31002;SDS011;23051;-6.372;106.786;2022-08-27T10:58:56;34.88;;;8.98;;
31002;SDS011;23051;-6.372;106.786;2022-08-27T11:01:42;13.27;;;6.97;;
31002;SDS011;23051;-6.372;106.786;2022-08-27T11:07:35;7.13;;;5.53;;
31002;SDS011;23051;-6.372;106.786;2022-08-27T11:11:47;12.48;;;8.38;;
31002;SDS011;23051;-6.372;106.786;2022-08-27T11:13:50;15.93;;;4.88;;
31002;SDS011;23051;-6.372;106.786;2022-08-27T11:15:55;7.78;;;6.85;;
31002;SDS011;23051;-6.372;106.786;2022-08-27T11:20:05;4.38;;;3.65;;
31002;SDS011;23051;-6.372;106.786;2022-08-27T11:22:17;6.88;;;5.25;;
31002;SDS011;23051;-6.372;106.786;2022-08-27T11:26:27;17.10;;;7.57;;
31002;SDS011;23051;-6.372;106.786;2022-08-27T11:34:46;11.60;;;6.70;;
31002;SDS011;23051;-6.372;106.786;2022-08-27T11:38:58;7.03;;;5.43;;
31002;SDS011;23051;-6.372;106.786;2022-08-27T11:41:10;8.18;;;6.68;;
31002;SDS011;23051;-6.372;106.786;2022-08-27T11:43:16;13.77;;;7.45;;
31002;SDS011;23051;-6.372;106.786;2022-08-27T11:45:21;8.63;;;6.80;;
31002;SDS011;23051;-6.372;106.786;2022-08-27T11:47:29;8.00;;;4.68;;
31002;SDS011;23051;-6.372;106.786;2022-08-27T11:49:45;13.85;;;8.70;;
31002;SDS011;23051;-6.372;106.786;2022-08-27T11:53:56;15.77;;;6.97;;
31002;SDS011;23051;-6.372;106.786;2022-08-27T12:00:13;7.15;;;5.63;;
31002;SDS011;23051;-6.372;106.786;2022-08-27T12:06:38;6.72;;;5.55;;
31002;SDS011;23051;-6.372;106.786;2022-08-27T12:08:44;8.15;;;4.70;;
31002;SDS011;23051;-6.372;106.786;2022-08-27T12:11:14;13.20;;;7.75;;
31002;SDS011;23051;-6.372;106.786;2022-08-27T12:13:16;8.65;;;6.55;;
31002;SDS011;23051;-6.372;106.786;2022-08-27T12:15:27;12.23;;;7.70;;
31002;SDS011;23051;-6.372;106.786;2022-08-27T12:20:01;9.80;;;5.53;;
31002;SDS011;23051;-6.372;106.786;2022-08-27T12:28:21;6.20;;;5.63;;
31002;SDS011;23051;-6.372;106.786;2022-08-27T12:34:32;6.50;;;4.90;;
31002;SDS011;23051;-6.372;106.786;2022-08-27T12:38:44;8.25;;;3.72;;
31002;SDS011;23051;-6.372;106.786;2022-08-27T12:47:24;8.02;;;6.43;;
31002;SDS011;23051;-6.372;106.786;2022-08-27T12:49:34;7.70;;;4.78;;
31002;SDS011;23051;-6.372;106.786;2022-08-27T12:51:36;8.88;;;5.22;;
31002;SDS011;23051;-6.372;106.786;2022-08-27T13:00:04;24.70;;;5.68;;
31002;SDS011;23051;-6.372;106.786;2022-08-27T13:04:22;6.55;;;5.30;;
31002;SDS011;23051;-6.372;106.786;2022-08-27T13:06:28;5.60;;;5.10;;
31002;SDS011;23051;-6.372;106.786;2022-08-27T13:08:33;10.98;;;3.40;;
31002;SDS011;23051;-6.372;106.786;2022-08-27T13:10:37;8.57;;;5.15;;
31002;SDS011;23051;-6.372;106.786;2022-08-27T13:12:41;8.45;;;5.05;;
31002;SDS011;23051;-6.372;106.786;2022-08-27T13:18:50;16.33;;;4.70;;
31002;SDS011;23051;-6.372;106.786;2022-08-27T13:22:59;4.68;;;3.30;;
31002;SDS011;23051;-6.372;106.786;2022-08-27T13:25:03;7.88;;;3.38;;
31002;SDS011;23051;-6.372;106.786;2022-08-27T13:27:07;7.68;;;4.95;;
31002;SDS011;23051;-6.372;106.786;2022-08-27T13:29:11;5.90;;;5.30;;
31002;SDS011;23051;-6.372;106.786;2022-08-27T13:31:12;5.80;;;4.25;;
31002;SDS011;23051;-6.372;106.786;2022-08-27T13:33:25;4.53;;;3.15;;
31002;SDS011;23051;-6.372;106.786;2022-08-27T13:35:30;8.70;;;5.20;;
31002;SDS011;23051;-6.372;106.786;2022-08-27T13:37:34;5.43;;;4.28;;
31002;SDS011;23051;-6.372;106.786;2022-08-27T13:39:36;14.80;;;5.72;;
31002;SDS011;23051;-6.372;106.786;2022-08-27T13:41:40;9.40;;;5.85;;
31002;SDS011;23051;-6.372;106.786;2022-08-27T13:43:43;9.38;;;5.30;;
31002;SDS011;23051;-6.372;106.786;2022-08-27T13:47:49;9.48;;;6.50;;
31002;SDS011;23051;-6.372;106.786;2022-08-27T13:52:02;4.50;;;4.15;;
31002;SDS011;23051;-6.372;106.786;2022-08-27T13:54:08;7.10;;;3.95;;
31002;SDS011;23051;-6.372;106.786;2022-08-27T13:58:18;5.85;;;4.50;;
31002;SDS011;23051;-6.372;106.786;2022-08-27T14:00:25;10.93;;;4.95;;
31002;SDS011;23051;-6.372;106.786;2022-08-27T14:02:31;5.20;;;4.78;;
31002;SDS011;23051;-6.372;106.786;2022-08-27T14:06:41;13.38;;;4.30;;
31002;SDS011;23051;-6.372;106.786;2022-08-27T14:08:46;9.05;;;4.47;;
31002;SDS011;23051;-6.372;106.786;2022-08-27T14:10:49;5.63;;;3.60;;
31002;SDS011;23051;-6.372;106.786;2022-08-27T14:13:01;7.75;;;4.28;;